Terminal Aerodrome Forecast
Issued by NWS

Home | Current Version | Previous Version | Text Only | Print | Product List | Glossary On
Versions: 1 2 3 4 5 6 7 8 9 10 11 12
371
FTPA31 PHFO 212321
TAFHKO
TAF
PHKO 212321Z 2200/2224 27008KT P6SM FEW045 SCT070
     FM220600 10005KT P6SM FEW045 SCT070
     FM222100 24008KT P6SM SCT045 BKN070=

USA.gov is the U.S. government's official web portal to all federal, state and local government web resources and services.